sensor_id;sensor_type;location;lat;lon;timestamp;temperature;humidity
1700;DHT22;847;48.058;7.810;2023-08-06T00:01:58;18.40;90.40
1700;DHT22;847;48.058;7.810;2023-08-06T00:04:25;18.40;90.50
1700;DHT22;847;48.058;7.810;2023-08-06T00:06:52;18.30;90.80
1700;DHT22;847;48.058;7.810;2023-08-06T00:09:19;18.20;91.30
1700;DHT22;847;48.058;7.810;2023-08-06T00:11:45;18.30;91.50
1700;DHT22;847;48.058;7.810;2023-08-06T00:14:12;18.20;91.70
1700;DHT22;847;48.058;7.810;2023-08-06T00:16:43;18.20;92.10
1700;DHT22;847;48.058;7.810;2023-08-06T00:19:09;18.10;92.80
1700;DHT22;847;48.058;7.810;2023-08-06T00:21:36;18.10;92.80
1700;DHT22;847;48.058;7.810;2023-08-06T00:24:03;18.10;93.20
1700;DHT22;847;48.058;7.810;2023-08-06T00:26:30;18.10;93.30
1700;DHT22;847;48.058;7.810;2023-08-06T00:28:56;18.10;93.40
1700;DHT22;847;48.058;7.810;2023-08-06T00:31:23;18.10;93.50
1700;DHT22;847;48.058;7.810;2023-08-06T00:33:51;18.10;93.80
1700;DHT22;847;48.058;7.810;2023-08-06T00:36:18;18.00;94.00
1700;DHT22;847;48.058;7.810;2023-08-06T00:38:44;18.00;94.00
1700;DHT22;847;48.058;7.810;2023-08-06T00:41:11;18.00;94.30
1700;DHT22;847;48.058;7.810;2023-08-06T00:43:38;18.00;93.90
1700;DHT22;847;48.058;7.810;2023-08-06T00:46:05;18.10;93.80
1700;DHT22;847;48.058;7.810;2023-08-06T00:48:32;18.10;93.60
1700;DHT22;847;48.058;7.810;2023-08-06T00:51:01;18.10;93.50
1700;DHT22;847;48.058;7.810;2023-08-06T00:53:28;18.00;93.70
1700;DHT22;847;48.058;7.810;2023-08-06T00:55:54;18.00;93.90
1700;DHT22;847;48.058;7.810;2023-08-06T00:58:21;18.00;93.50
1700;DHT22;847;48.058;7.810;2023-08-06T01:00:48;18.00;93.40
1700;DHT22;847;48.058;7.810;2023-08-06T01:03:15;18.00;93.70
1700;DHT22;847;48.058;7.810;2023-08-06T01:05:42;18.00;93.40
1700;DHT22;847;48.058;7.810;2023-08-06T01:08:19;18.00;93.80
1700;DHT22;847;48.058;7.810;2023-08-06T01:11:00;18.00;93.50
1700;DHT22;847;48.058;7.810;2023-08-06T01:13:33;18.00;93.60
1700;DHT22;847;48.058;7.810;2023-08-06T01:16:05;18.00;93.20
1700;DHT22;847;48.058;7.810;2023-08-06T01:18:32;18.00;93.10
1700;DHT22;847;48.058;7.810;2023-08-06T01:21:00;18.10;92.80
1700;DHT22;847;48.058;7.810;2023-08-06T01:23:27;18.10;92.80
1700;DHT22;847;48.058;7.810;2023-08-06T01:25:59;18.10;93.00
1700;DHT22;847;48.058;7.810;2023-08-06T01:28:36;18.10;92.60
1700;DHT22;847;48.058;7.810;2023-08-06T01:31:08;18.10;93.00
1700;DHT22;847;48.058;7.810;2023-08-06T01:33:39;18.10;93.30
1700;DHT22;847;48.058;7.810;2023-08-06T01:36:07;18.10;93.00
1700;DHT22;847;48.058;7.810;2023-08-06T01:38:35;18.10;93.70
1700;DHT22;847;48.058;7.810;2023-08-06T01:41:02;18.00;94.30
1700;DHT22;847;48.058;7.810;2023-08-06T01:43:28;17.90;96.10
1700;DHT22;847;48.058;7.810;2023-08-06T01:45:55;17.90;96.20
1700;DHT22;847;48.058;7.810;2023-08-06T01:48:22;17.90;97.30
1700;DHT22;847;48.058;7.810;2023-08-06T01:50:48;17.90;96.70
1700;DHT22;847;48.058;7.810;2023-08-06T01:53:16;17.90;97.10
1700;DHT22;847;48.058;7.810;2023-08-06T01:55:47;17.90;97.20
1700;DHT22;847;48.058;7.810;2023-08-06T01:58:14;17.90;97.60
1700;DHT22;847;48.058;7.810;2023-08-06T02:00:41;17.80;97.50
1700;DHT22;847;48.058;7.810;2023-08-06T02:03:07;17.90;97.40
1700;DHT22;847;48.058;7.810;2023-08-06T02:05:34;17.80;97.80
1700;DHT22;847;48.058;7.810;2023-08-06T02:08:01;17.60;98.50
1700;DHT22;847;48.058;7.810;2023-08-06T02:10:29;17.40;99.00
1700;DHT22;847;48.058;7.810;2023-08-06T02:12:56;17.30;99.00
1700;DHT22;847;48.058;7.810;2023-08-06T02:15:22;17.40;99.00
1700;DHT22;847;48.058;7.810;2023-08-06T02:17:49;17.30;99.00
1700;DHT22;847;48.058;7.810;2023-08-06T02:20:16;17.20;99.00
1700;DHT22;847;48.058;7.810;2023-08-06T02:22:43;17.10;99.00
1700;DHT22;847;48.058;7.810;2023-08-06T02:25:09;17.00;99.00
1700;DHT22;847;48.058;7.810;2023-08-06T02:27:38;16.90;99.00
1700;DHT22;847;48.058;7.810;2023-08-06T02:30:06;16.90;99.00
1700;DHT22;847;48.058;7.810;2023-08-06T02:32:33;16.80;99.00
1700;DHT22;847;48.058;7.810;2023-08-06T02:35:01;16.90;99.00
1700;DHT22;847;48.058;7.810;2023-08-06T02:37:28;16.80;99.00
1700;DHT22;847;48.058;7.810;2023-08-06T02:39:54;16.90;99.00
1700;DHT22;847;48.058;7.810;2023-08-06T02:42:21;17.00;99.00
1700;DHT22;847;48.058;7.810;2023-08-06T02:44:50;17.00;99.00
1700;DHT22;847;48.058;7.810;2023-08-06T02:47:17;17.10;99.00
1700;DHT22;847;48.058;7.810;2023-08-06T02:49:43;17.10;99.00
1700;DHT22;847;48.058;7.810;2023-08-06T02:52:10;17.10;99.00
1700;DHT22;847;48.058;7.810;2023-08-06T02:54:37;17.20;99.00
1700;DHT22;847;48.058;7.810;2023-08-06T02:57:05;17.20;99.00
1700;DHT22;847;48.058;7.810;2023-08-06T02:59:32;17.10;99.00
1700;DHT22;847;48.058;7.810;2023-08-06T03:02:00;17.20;99.00
1700;DHT22;847;48.058;7.810;2023-08-06T03:04:26;17.20;99.00
1700;DHT22;847;48.058;7.810;2023-08-06T03:06:53;17.20;99.00
1700;DHT22;847;48.058;7.810;2023-08-06T03:09:20;17.10;99.00
1700;DHT22;847;48.058;7.810;2023-08-06T03:11:46;17.10;99.00
1700;DHT22;847;48.058;7.810;2023-08-06T03:14:13;17.10;99.00
1700;DHT22;847;48.058;7.810;2023-08-06T03:16:40;17.00;99.00
1700;DHT22;847;48.058;7.810;2023-08-06T03:19:08;17.00;99.00
1700;DHT22;847;48.058;7.810;2023-08-06T03:21:34;16.90;99.00
1700;DHT22;847;48.058;7.810;2023-08-06T03:24:01;16.90;99.00
1700;DHT22;847;48.058;7.810;2023-08-06T03:26:28;16.90;99.00
1700;DHT22;847;48.058;7.810;2023-08-06T03:28:55;16.80;99.00
1700;DHT22;847;48.058;7.810;2023-08-06T03:31:21;16.80;99.00
1700;DHT22;847;48.058;7.810;2023-08-06T03:33:48;16.80;99.00
1700;DHT22;847;48.058;7.810;2023-08-06T03:36:16;16.70;99.00
1700;DHT22;847;48.058;7.810;2023-08-06T03:38:43;16.80;99.00
1700;DHT22;847;48.058;7.810;2023-08-06T03:41:09;16.70;99.00
1700;DHT22;847;48.058;7.810;2023-08-06T03:43:36;16.60;99.00
1700;DHT22;847;48.058;7.810;2023-08-06T03:46:03;16.60;99.00
1700;DHT22;847;48.058;7.810;2023-08-06T03:48:29;16.60;99.00
1700;DHT22;847;48.058;7.810;2023-08-06T03:50:56;16.50;99.00
1700;DHT22;847;48.058;7.810;2023-08-06T03:53:24;16.50;99.00
1700;DHT22;847;48.058;7.810;2023-08-06T03:55:51;16.50;99.00
1700;DHT22;847;48.058;7.810;2023-08-06T03:58:18;16.40;99.00
1700;DHT22;847;48.058;7.810;2023-08-06T04:00:44;16.40;99.00
1700;DHT22;847;48.058;7.810;2023-08-06T04:03:11;16.30;99.00
1700;DHT22;847;48.058;7.810;2023-08-06T04:05:38;16.30;99.00
1700;DHT22;847;48.058;7.810;2023-08-06T04:08:04;16.20;99.00
1700;DHT22;847;48.058;7.810;2023-08-06T04:10:32;16.30;99.00
1700;DHT22;847;48.058;7.810;2023-08-06T04:12:59;16.30;99.00
1700;DHT22;847;48.058;7.810;2023-08-06T04:15:26;16.20;99.00
1700;DHT22;847;48.058;7.810;2023-08-06T04:17:53;16.10;99.00
1700;DHT22;847;48.058;7.810;2023-08-06T04:20:22;16.10;99.00
1700;DHT22;847;48.058;7.810;2023-08-06T04:22:48;16.10;99.00
1700;DHT22;847;48.058;7.810;2023-08-06T04:25:15;16.10;99.00
1700;DHT22;847;48.058;7.810;2023-08-06T04:27:47;16.10;99.00
1700;DHT22;847;48.058;7.810;2023-08-06T04:30:14;16.00;99.00
1700;DHT22;847;48.058;7.810;2023-08-06T04:32:41;16.00;99.00
1700;DHT22;847;48.058;7.810;2023-08-06T04:35:08;16.00;99.00
1700;DHT22;847;48.058;7.810;2023-08-06T04:37:34;16.00;99.00
1700;DHT22;847;48.058;7.810;2023-08-06T04:40:01;16.00;99.00
1700;DHT22;847;48.058;7.810;2023-08-06T04:42:28;16.00;99.00
1700;DHT22;847;48.058;7.810;2023-08-06T04:44:56;16.00;99.00
1700;DHT22;847;48.058;7.810;2023-08-06T04:47:23;16.00;99.00
1700;DHT22;847;48.058;7.810;2023-08-06T04:49:51;16.00;99.00
1700;DHT22;847;48.058;7.810;2023-08-06T04:52:18;15.90;99.00
1700;DHT22;847;48.058;7.810;2023-08-06T04:54:44;15.90;99.00
1700;DHT22;847;48.058;7.810;2023-08-06T04:57:11;15.90;99.00
1700;DHT22;847;48.058;7.810;2023-08-06T04:59:39;15.80;99.00
1700;DHT22;847;48.058;7.810;2023-08-06T05:02:07;15.80;99.00
1700;DHT22;847;48.058;7.810;2023-08-06T05:04:33;15.80;99.00
1700;DHT22;847;48.058;7.810;2023-08-06T05:07:00;15.70;99.00
1700;DHT22;847;48.058;7.810;2023-08-06T05:09:27;15.70;99.00
1700;DHT22;847;48.058;7.810;2023-08-06T05:11:53;15.60;99.00
1700;DHT22;847;48.058;7.810;2023-08-06T05:14:20;15.60;99.00
1700;DHT22;847;48.058;7.810;2023-08-06T05:16:47;15.50;99.00
1700;DHT22;847;48.058;7.810;2023-08-06T05:19:15;15.50;99.00
1700;DHT22;847;48.058;7.810;2023-08-06T05:21:42;15.50;99.00
1700;DHT22;847;48.058;7.810;2023-08-06T05:24:08;15.40;99.00
1700;DHT22;847;48.058;7.810;2023-08-06T05:26:35;15.40;99.00
1700;DHT22;847;48.058;7.810;2023-08-06T05:29:02;15.30;99.00
1700;DHT22;847;48.058;7.810;2023-08-06T05:31:29;15.40;99.00
1700;DHT22;847;48.058;7.810;2023-08-06T05:33:56;15.40;99.00
1700;DHT22;847;48.058;7.810;2023-08-06T05:36:24;15.40;99.00
1700;DHT22;847;48.058;7.810;2023-08-06T05:38:51;15.40;99.00
1700;DHT22;847;48.058;7.810;2023-08-06T05:41:17;15.40;99.00
1700;DHT22;847;48.058;7.810;2023-08-06T05:43:44;15.40;99.00
1700;DHT22;847;48.058;7.810;2023-08-06T05:46:11;15.40;99.00
1700;DHT22;847;48.058;7.810;2023-08-06T05:48:38;15.40;99.00
1700;DHT22;847;48.058;7.810;2023-08-06T05:51:04;15.30;99.00
1700;DHT22;847;48.058;7.810;2023-08-06T05:53:32;15.30;99.00
1700;DHT22;847;48.058;7.810;2023-08-06T05:55:59;15.30;99.00
1700;DHT22;847;48.058;7.810;2023-08-06T05:58:26;15.30;99.00
1700;DHT22;847;48.058;7.810;2023-08-06T06:00:54;15.30;99.00
1700;DHT22;847;48.058;7.810;2023-08-06T06:03:21;15.30;99.00
1700;DHT22;847;48.058;7.810;2023-08-06T06:05:48;15.30;99.00
1700;DHT22;847;48.058;7.810;2023-08-06T06:08:14;15.30;99.00
1700;DHT22;847;48.058;7.810;2023-08-06T06:10:42;15.30;99.00
1700;DHT22;847;48.058;7.810;2023-08-06T06:13:09;15.40;99.00
1700;DHT22;847;48.058;7.810;2023-08-06T06:15:36;15.30;99.00
1700;DHT22;847;48.058;7.810;2023-08-06T06:18:03;15.30;99.00
1700;DHT22;847;48.058;7.810;2023-08-06T06:20:31;15.40;99.00
1700;DHT22;847;48.058;7.810;2023-08-06T06:22:58;15.30;99.00
1700;DHT22;847;48.058;7.810;2023-08-06T06:25:25;15.30;99.00
1700;DHT22;847;48.058;7.810;2023-08-06T06:27:53;15.30;99.00
1700;DHT22;847;48.058;7.810;2023-08-06T06:30:20;15.30;99.00
1700;DHT22;847;48.058;7.810;2023-08-06T06:32:47;15.30;99.00
1700;DHT22;847;48.058;7.810;2023-08-06T06:35:14;15.30;99.00
1700;DHT22;847;48.058;7.810;2023-08-06T06:37:40;15.30;99.00
1700;DHT22;847;48.058;7.810;2023-08-06T06:40:08;15.30;99.00
1700;DHT22;847;48.058;7.810;2023-08-06T06:42:34;15.20;99.00
1700;DHT22;847;48.058;7.810;2023-08-06T06:45:03;15.20;99.00
1700;DHT22;847;48.058;7.810;2023-08-06T06:47:30;15.20;99.00
1700;DHT22;847;48.058;7.810;2023-08-06T06:49:56;15.20;99.00
1700;DHT22;847;48.058;7.810;2023-08-06T06:52:23;15.20;99.00
1700;DHT22;847;48.058;7.810;2023-08-06T06:54:50;15.20;99.00
1700;DHT22;847;48.058;7.810;2023-08-06T06:57:16;15.20;99.00
1700;DHT22;847;48.058;7.810;2023-08-06T06:59:43;15.20;99.00
1700;DHT22;847;48.058;7.810;2023-08-06T07:02:11;15.20;99.00
1700;DHT22;847;48.058;7.810;2023-08-06T07:04:38;15.20;99.00
1700;DHT22;847;48.058;7.810;2023-08-06T07:07:05;15.20;99.00
1700;DHT22;847;48.058;7.810;2023-08-06T07:09:31;15.20;99.00
1700;DHT22;847;48.058;7.810;2023-08-06T07:11:58;15.20;99.00
1700;DHT22;847;48.058;7.810;2023-08-06T07:14:25;15.20;99.00
1700;DHT22;847;48.058;7.810;2023-08-06T07:16:52;15.20;99.00
1700;DHT22;847;48.058;7.810;2023-08-06T07:19:20;15.20;99.00
1700;DHT22;847;48.058;7.810;2023-08-06T07:21:47;15.20;99.00
1700;DHT22;847;48.058;7.810;2023-08-06T07:24:14;15.20;99.00
1700;DHT22;847;48.058;7.810;2023-08-06T07:26:40;15.20;99.00
1700;DHT22;847;48.058;7.810;2023-08-06T07:29:07;15.20;99.00
1700;DHT22;847;48.058;7.810;2023-08-06T07:31:34;15.10;99.00
1700;DHT22;847;48.058;7.810;2023-08-06T07:34:01;15.20;99.00
1700;DHT22;847;48.058;7.810;2023-08-06T07:36:29;15.20;99.00
1700;DHT22;847;48.058;7.810;2023-08-06T07:38:56;15.20;99.00
1700;DHT22;847;48.058;7.810;2023-08-06T07:41:23;15.20;99.00
1700;DHT22;847;48.058;7.810;2023-08-06T07:43:49;15.30;99.00
1700;DHT22;847;48.058;7.810;2023-08-06T07:46:16;15.30;99.00
1700;DHT22;847;48.058;7.810;2023-08-06T07:48:43;15.30;99.00
1700;DHT22;847;48.058;7.810;2023-08-06T07:51:09;15.30;99.00
1700;DHT22;847;48.058;7.810;2023-08-06T07:53:38;15.30;99.00
1700;DHT22;847;48.058;7.810;2023-08-06T07:56:04;15.30;99.00
1700;DHT22;847;48.058;7.810;2023-08-06T07:58:31;15.30;99.00
1700;DHT22;847;48.058;7.810;2023-08-06T08:00:58;15.30;99.00
1700;DHT22;847;48.058;7.810;2023-08-06T08:03:24;15.30;99.00
1700;DHT22;847;48.058;7.810;2023-08-06T08:05:55;15.30;99.00
1700;DHT22;847;48.058;7.810;2023-08-06T08:08:23;15.30;99.00
1700;DHT22;847;48.058;7.810;2023-08-06T08:10:51;15.30;99.00
1700;DHT22;847;48.058;7.810;2023-08-06T08:13:17;15.40;99.00
1700;DHT22;847;48.058;7.810;2023-08-06T08:15:44;15.40;99.00
1700;DHT22;847;48.058;7.810;2023-08-06T08:18:11;15.40;99.00
1700;DHT22;847;48.058;7.810;2023-08-06T08:20:38;15.40;99.00
1700;DHT22;847;48.058;7.810;2023-08-06T08:23:04;15.40;99.00
1700;DHT22;847;48.058;7.810;2023-08-06T08:25:31;15.40;99.00
1700;DHT22;847;48.058;7.810;2023-08-06T08:28:00;15.40;99.00
1700;DHT22;847;48.058;7.810;2023-08-06T08:30:27;15.40;99.00
1700;DHT22;847;48.058;7.810;2023-08-06T08:32:54;15.40;99.00
1700;DHT22;847;48.058;7.810;2023-08-06T08:35:21;15.50;99.00
1700;DHT22;847;48.058;7.810;2023-08-06T08:37:48;15.30;99.00
1700;DHT22;847;48.058;7.810;2023-08-06T08:40:15;15.40;99.00
1700;DHT22;847;48.058;7.810;2023-08-06T08:42:42;15.30;99.00
1700;DHT22;847;48.058;7.810;2023-08-06T08:45:12;15.30;99.00
1700;DHT22;847;48.058;7.810;2023-08-06T08:47:40;15.30;99.00
1700;DHT22;847;48.058;7.810;2023-08-06T08:50:08;15.40;99.00
1700;DHT22;847;48.058;7.810;2023-08-06T08:52:36;15.40;99.00
1700;DHT22;847;48.058;7.810;2023-08-06T08:55:05;15.30;99.00
1700;DHT22;847;48.058;7.810;2023-08-06T08:57:33;15.40;99.00
1700;DHT22;847;48.058;7.810;2023-08-06T08:59:59;15.30;99.00
1700;DHT22;847;48.058;7.810;2023-08-06T09:02:28;15.40;99.00
1700;DHT22;847;48.058;7.810;2023-08-06T09:04:56;15.40;99.00
1700;DHT22;847;48.058;7.810;2023-08-06T09:07:25;15.40;99.00
1700;DHT22;847;48.058;7.810;2023-08-06T09:09:53;15.30;99.00
1700;DHT22;847;48.058;7.810;2023-08-06T09:12:22;15.40;99.00
1700;DHT22;847;48.058;7.810;2023-08-06T09:14:48;15.40;99.00
1700;DHT22;847;48.058;7.810;2023-08-06T09:17:16;15.50;99.00
1700;DHT22;847;48.058;7.810;2023-08-06T09:19:47;15.50;99.00
1700;DHT22;847;48.058;7.810;2023-08-06T09:22:15;15.60;99.00
1700;DHT22;847;48.058;7.810;2023-08-06T09:24:41;15.60;99.00
1700;DHT22;847;48.058;7.810;2023-08-06T09:27:11;15.60;99.00
1700;DHT22;847;48.058;7.810;2023-08-06T09:29:40;15.60;99.00
1700;DHT22;847;48.058;7.810;2023-08-06T09:32:08;15.60;99.00
1700;DHT22;847;48.058;7.810;2023-08-06T09:34:35;15.60;99.00
1700;DHT22;847;48.058;7.810;2023-08-06T09:37:03;15.60;99.00
1700;DHT22;847;48.058;7.810;2023-08-06T09:39:30;15.70;99.00
1700;DHT22;847;48.058;7.810;2023-08-06T09:41:58;15.70;99.00
1700;DHT22;847;48.058;7.810;2023-08-06T09:44:26;15.70;99.00
1700;DHT22;847;48.058;7.810;2023-08-06T09:46:54;15.70;99.00
1700;DHT22;847;48.058;7.810;2023-08-06T09:49:25;15.70;99.00
1700;DHT22;847;48.058;7.810;2023-08-06T09:51:52;15.70;99.00
1700;DHT22;847;48.058;7.810;2023-08-06T09:54:23;15.60;99.00
1700;DHT22;847;48.058;7.810;2023-08-06T09:56:50;15.60;99.00
1700;DHT22;847;48.058;7.810;2023-08-06T09:59:17;15.60;99.00
1700;DHT22;847;48.058;7.810;2023-08-06T10:01:45;15.60;99.00
1700;DHT22;847;48.058;7.810;2023-08-06T10:04:14;15.70;99.00
1700;DHT22;847;48.058;7.810;2023-08-06T10:06:46;15.60;99.00
1700;DHT22;847;48.058;7.810;2023-08-06T10:09:13;15.60;99.00
1700;DHT22;847;48.058;7.810;2023-08-06T10:11:42;15.60;99.00
1700;DHT22;847;48.058;7.810;2023-08-06T10:14:16;15.60;99.00
1700;DHT22;847;48.058;7.810;2023-08-06T10:16:45;15.60;99.00
1700;DHT22;847;48.058;7.810;2023-08-06T10:19:14;15.70;99.00
1700;DHT22;847;48.058;7.810;2023-08-06T10:21:42;15.60;99.00
1700;DHT22;847;48.058;7.810;2023-08-06T10:24:45;15.60;99.00
1700;DHT22;847;48.058;7.810;2023-08-06T10:27:14;15.70;99.00
1700;DHT22;847;48.058;7.810;2023-08-06T10:29:45;15.60;99.00
1700;DHT22;847;48.058;7.810;2023-08-06T10:32:12;15.60;99.00
1700;DHT22;847;48.058;7.810;2023-08-06T10:34:54;15.70;99.00
1700;DHT22;847;48.058;7.810;2023-08-06T10:37:21;15.70;99.00
1700;DHT22;847;48.058;7.810;2023-08-06T10:39:49;15.70;99.00
1700;DHT22;847;48.058;7.810;2023-08-06T10:42:21;15.70;99.00
1700;DHT22;847;48.058;7.810;2023-08-06T10:45:16;15.70;99.00
1700;DHT22;847;48.058;7.810;2023-08-06T10:47:43;15.70;99.00
1700;DHT22;847;48.058;7.810;2023-08-06T10:50:12;15.70;99.00
1700;DHT22;847;48.058;7.810;2023-08-06T10:52:39;15.60;99.00
1700;DHT22;847;48.058;7.810;2023-08-06T10:55:07;15.70;99.00
1700;DHT22;847;48.058;7.810;2023-08-06T10:57:36;15.70;99.00
1700;DHT22;847;48.058;7.810;2023-08-06T11:00:04;15.70;99.00
1700;DHT22;847;48.058;7.810;2023-08-06T11:02:33;15.70;99.00
1700;DHT22;847;48.058;7.810;2023-08-06T11:05:05;15.70;99.00
1700;DHT22;847;48.058;7.810;2023-08-06T11:07:32;15.70;99.00
1700;DHT22;847;48.058;7.810;2023-08-06T11:10:02;15.60;99.00
1700;DHT22;847;48.058;7.810;2023-08-06T11:12:29;15.70;99.00
1700;DHT22;847;48.058;7.810;2023-08-06T11:14:57;15.70;99.00
1700;DHT22;847;48.058;7.810;2023-08-06T11:17:24;15.60;99.00
1700;DHT22;847;48.058;7.810;2023-08-06T11:19:52;15.60;99.00
1700;DHT22;847;48.058;7.810;2023-08-06T11:22:19;15.60;99.00
1700;DHT22;847;48.058;7.810;2023-08-06T11:24:46;15.60;99.00
1700;DHT22;847;48.058;7.810;2023-08-06T11:27:14;15.60;99.00
1700;DHT22;847;48.058;7.810;2023-08-06T11:29:41;15.60;99.00
1700;DHT22;847;48.058;7.810;2023-08-06T11:32:09;15.60;99.00
1700;DHT22;847;48.058;7.810;2023-08-06T11:34:37;15.60;99.00
1700;DHT22;847;48.058;7.810;2023-08-06T11:37:04;15.60;99.00
1700;DHT22;847;48.058;7.810;2023-08-06T11:39:32;15.60;99.00
1700;DHT22;847;48.058;7.810;2023-08-06T11:41:59;15.70;99.00
1700;DHT22;847;48.058;7.810;2023-08-06T11:44:30;15.60;99.00
1700;DHT22;847;48.058;7.810;2023-08-06T11:46:57;15.60;99.00
1700;DHT22;847;48.058;7.810;2023-08-06T11:49:41;15.60;99.00
1700;DHT22;847;48.058;7.810;2023-08-06T11:52:17;15.70;99.00
1700;DHT22;847;48.058;7.810;2023-08-06T11:54:59;15.70;99.00
1700;DHT22;847;48.058;7.810;2023-08-06T11:57:26;15.80;99.00
1700;DHT22;847;48.058;7.810;2023-08-06T11:59:53;15.80;99.00
1700;DHT22;847;48.058;7.810;2023-08-06T12:02:21;15.90;99.00
1700;DHT22;847;48.058;7.810;2023-08-06T12:05:04;16.00;99.00
1700;DHT22;847;48.058;7.810;2023-08-06T12:07:32;16.10;99.00
1700;DHT22;847;48.058;7.810;2023-08-06T12:09:59;16.20;99.00
1700;DHT22;847;48.058;7.810;2023-08-06T12:12:26;16.20;99.00
1700;DHT22;847;48.058;7.810;2023-08-06T12:14:54;16.20;99.00
1700;DHT22;847;48.058;7.810;2023-08-06T12:17:21;15.90;99.00
1700;DHT22;847;48.058;7.810;2023-08-06T12:19:48;15.60;99.00
1700;DHT22;847;48.058;7.810;2023-08-06T12:22:16;15.50;99.00
1700;DHT22;847;48.058;7.810;2023-08-06T12:24:44;15.50;99.00
1700;DHT22;847;48.058;7.810;2023-08-06T12:27:11;15.60;99.00
1700;DHT22;847;48.058;7.810;2023-08-06T12:29:41;15.70;99.00
1700;DHT22;847;48.058;7.810;2023-08-06T12:32:08;15.80;99.00
1700;DHT22;847;48.058;7.810;2023-08-06T12:34:34;15.90;99.00
1700;DHT22;847;48.058;7.810;2023-08-06T12:37:02;15.90;99.00
1700;DHT22;847;48.058;7.810;2023-08-06T12:39:30;16.00;99.00
1700;DHT22;847;48.058;7.810;2023-08-06T12:41:58;16.00;99.00
1700;DHT22;847;48.058;7.810;2023-08-06T12:44:25;16.10;99.00
1700;DHT22;847;48.058;7.810;2023-08-06T12:46:52;16.10;99.00
1700;DHT22;847;48.058;7.810;2023-08-06T12:49:19;16.00;99.00
1700;DHT22;847;48.058;7.810;2023-08-06T12:51:46;16.00;99.00
1700;DHT22;847;48.058;7.810;2023-08-06T12:54:13;16.10;99.00
1700;DHT22;847;48.058;7.810;2023-08-06T12:56:41;16.20;99.00
1700;DHT22;847;48.058;7.810;2023-08-06T12:59:08;16.30;99.00
1700;DHT22;847;48.058;7.810;2023-08-06T13:01:34;16.40;99.00
1700;DHT22;847;48.058;7.810;2023-08-06T13:04:01;16.50;99.00
1700;DHT22;847;48.058;7.810;2023-08-06T13:06:28;16.50;99.00
1700;DHT22;847;48.058;7.810;2023-08-06T13:08:56;16.50;99.00
1700;DHT22;847;48.058;7.810;2023-08-06T13:11:23;16.50;99.00
1700;DHT22;847;48.058;7.810;2023-08-06T13:13:51;16.40;97.60
1700;DHT22;847;48.058;7.810;2023-08-06T13:16:18;16.40;99.00
1700;DHT22;847;48.058;7.810;2023-08-06T13:18:45;16.40;98.50
1700;DHT22;847;48.058;7.810;2023-08-06T13:21:11;16.50;99.00
1700;DHT22;847;48.058;7.810;2023-08-06T13:23:38;16.50;97.40
1700;DHT22;847;48.058;7.810;2023-08-06T13:26:05;16.60;97.90
1700;DHT22;847;48.058;7.810;2023-08-06T13:28:32;16.60;97.10
1700;DHT22;847;48.058;7.810;2023-08-06T13:31:01;16.60;96.40
1700;DHT22;847;48.058;7.810;2023-08-06T13:33:27;16.70;94.90
1700;DHT22;847;48.058;7.810;2023-08-06T13:35:54;16.70;95.80
1700;DHT22;847;48.058;7.810;2023-08-06T13:38:21;16.70;94.40
1700;DHT22;847;48.058;7.810;2023-08-06T13:40:48;16.70;93.40
1700;DHT22;847;48.058;7.810;2023-08-06T13:43:14;16.60;91.80
1700;DHT22;847;48.058;7.810;2023-08-06T13:45:44;16.70;93.20
1700;DHT22;847;48.058;7.810;2023-08-06T13:48:12;16.70;92.80
1700;DHT22;847;48.058;7.810;2023-08-06T13:50:39;16.80;91.50
1700;DHT22;847;48.058;7.810;2023-08-06T13:53:06;16.80;91.50
1700;DHT22;847;48.058;7.810;2023-08-06T13:55:32;16.80;92.40
1700;DHT22;847;48.058;7.810;2023-08-06T13:57:59;16.90;92.80
1700;DHT22;847;48.058;7.810;2023-08-06T14:00:26;16.90;88.40
1700;DHT22;847;48.058;7.810;2023-08-06T14:02:52;16.90;88.90
1700;DHT22;847;48.058;7.810;2023-08-06T14:05:20;17.00;88.80
1700;DHT22;847;48.058;7.810;2023-08-06T14:07:47;17.10;88.70
1700;DHT22;847;48.058;7.810;2023-08-06T14:10:14;17.10;87.40
1700;DHT22;847;48.058;7.810;2023-08-06T14:12:41;17.10;89.20
1700;DHT22;847;48.058;7.810;2023-08-06T14:15:08;17.10;89.80
1700;DHT22;847;48.058;7.810;2023-08-06T14:17:35;17.00;89.90
1700;DHT22;847;48.058;7.810;2023-08-06T14:20:03;17.00;90.30
1700;DHT22;847;48.058;7.810;2023-08-06T14:22:31;16.90;92.80
1700;DHT22;847;48.058;7.810;2023-08-06T14:24:58;16.60;96.80
1700;DHT22;847;48.058;7.810;2023-08-06T14:27:25;16.50;97.70
1700;DHT22;847;48.058;7.810;2023-08-06T14:29:52;16.50;98.60
1700;DHT22;847;48.058;7.810;2023-08-06T14:32:19;16.40;98.20
1700;DHT22;847;48.058;7.810;2023-08-06T14:34:46;16.40;97.50
1700;DHT22;847;48.058;7.810;2023-08-06T14:37:13;16.50;99.00
1700;DHT22;847;48.058;7.810;2023-08-06T14:39:41;16.50;99.00
1700;DHT22;847;48.058;7.810;2023-08-06T14:42:08;16.70;99.00
1700;DHT22;847;48.058;7.810;2023-08-06T14:44:35;16.90;98.20
1700;DHT22;847;48.058;7.810;2023-08-06T14:47:02;17.00;98.60
1700;DHT22;847;48.058;7.810;2023-08-06T14:49:28;17.00;98.40
1700;DHT22;847;48.058;7.810;2023-08-06T14:51:55;17.00;97.20
1700;DHT22;847;48.058;7.810;2023-08-06T14:54:24;17.00;96.70
1700;DHT22;847;48.058;7.810;2023-08-06T14:56:52;17.10;96.00
1700;DHT22;847;48.058;7.810;2023-08-06T14:59:19;17.20;97.40
1700;DHT22;847;48.058;7.810;2023-08-06T15:01:46;17.30;96.40
1700;DHT22;847;48.058;7.810;2023-08-06T15:04:12;17.30;96.40
1700;DHT22;847;48.058;7.810;2023-08-06T15:06:39;17.40;94.20
1700;DHT22;847;48.058;7.810;2023-08-06T15:09:07;17.30;92.60
1700;DHT22;847;48.058;7.810;2023-08-06T15:11:34;17.30;94.20
1700;DHT22;847;48.058;7.810;2023-08-06T15:14:02;17.30;92.40
1700;DHT22;847;48.058;7.810;2023-08-06T15:16:30;17.30;93.40
1700;DHT22;847;48.058;7.810;2023-08-06T15:18:59;17.30;92.00
1700;DHT22;847;48.058;7.810;2023-08-06T15:21:26;17.20;92.00
1700;DHT22;847;48.058;7.810;2023-08-06T15:23:53;16.90;87.70
1700;DHT22;847;48.058;7.810;2023-08-06T15:26:19;16.70;88.20
1700;DHT22;847;48.058;7.810;2023-08-06T15:28:46;16.60;90.20
1700;DHT22;847;48.058;7.810;2023-08-06T15:31:14;16.50;90.20
1700;DHT22;847;48.058;7.810;2023-08-06T15:33:41;16.40;90.10
1700;DHT22;847;48.058;7.810;2023-08-06T15:36:07;16.30;90.60
1700;DHT22;847;48.058;7.810;2023-08-06T15:38:34;16.40;91.40
1700;DHT22;847;48.058;7.810;2023-08-06T15:41:01;16.50;92.00
1700;DHT22;847;48.058;7.810;2023-08-06T15:43:28;16.90;93.00
1700;DHT22;847;48.058;7.810;2023-08-06T15:45:55;17.30;91.70
1700;DHT22;847;48.058;7.810;2023-08-06T15:48:23;17.40;90.70
1700;DHT22;847;48.058;7.810;2023-08-06T15:50:50;17.40;89.90
1700;DHT22;847;48.058;7.810;2023-08-06T15:53:16;17.30;90.20
1700;DHT22;847;48.058;7.810;2023-08-06T15:55:43;17.30;90.90
1700;DHT22;847;48.058;7.810;2023-08-06T15:58:12;17.30;88.30
1700;DHT22;847;48.058;7.810;2023-08-06T16:00:39;17.30;89.30
1700;DHT22;847;48.058;7.810;2023-08-06T16:03:06;17.20;89.30
1700;DHT22;847;48.058;7.810;2023-08-06T16:05:34;17.20;88.40
1700;DHT22;847;48.058;7.810;2023-08-06T16:08:01;17.20;88.00
1700;DHT22;847;48.058;7.810;2023-08-06T16:10:27;17.20;88.10
1700;DHT22;847;48.058;7.810;2023-08-06T16:12:54;17.20;88.20
1700;DHT22;847;48.058;7.810;2023-08-06T16:15:21;17.20;86.00
1700;DHT22;847;48.058;7.810;2023-08-06T16:17:47;17.20;87.40
1700;DHT22;847;48.058;7.810;2023-08-06T16:20:14;17.20;86.70